Time;durP1;ratioP1;P1;durP2;ratioP2;P2;SDS_P1;SDS_P2;PMS_P1;PMS_P2;Temp;Humidity;BMP_temperature;BMP_pressure;BME280_temperature;BME280_humidity;BME280_pressure;Samples;Min_cycle;Max_cycle;Signal;HPM_P1;HPM_P2
2023/11/30 00:01:46;;;;;;;16.27;9.95;;;1.60;99.90;;;;;;5023774;28;20033;-73
2023/11/30 00:04:12;;;;;;;18.70;10.07;;;1.60;99.90;;;;;;4999638;28;20044;-72
2023/11/30 00:06:39;;;;;;;18.02;10.23;;;1.70;99.90;;;;;;5001751;28;20495;-72
2023/11/30 00:09:04;;;;;;;17.20;10.27;;;1.70;99.90;;;;;;5027730;28;20124;-72
2023/11/30 00:11:33;;;;;;;17.92;9.93;;;1.70;99.90;;;;;;4999458;28;20077;-72
2023/11/30 00:13:59;;;;;;;14.88;9.15;;;1.70;99.90;;;;;;5029380;28;20089;-72
2023/11/30 00:16:24;;;;;;;17.25;9.88;;;1.70;99.90;;;;;;4999721;28;20068;-72
2023/11/30 00:18:50;;;;;;;17.38;10.65;;;1.70;99.90;;;;;;5030730;28;20073;-72
2023/11/30 00:21:15;;;;;;;17.38;10.10;;;1.70;99.90;;;;;;5013341;28;20037;-72
2023/11/30 00:23:41;;;;;;;18.52;10.65;;;1.70;99.90;;;;;;5016373;28;20042;-72
2023/11/30 00:26:07;;;;;;;21.10;9.93;;;1.60;99.90;;;;;;4988400;28;20049;-72
2023/11/30 00:28:35;;;;;;;18.55;10.25;;;1.70;99.90;;;;;;5017625;28;20033;-73
2023/11/30 00:31:01;;;;;;;19.95;10.65;;;1.60;99.90;;;;;;4985573;28;20058;-72
2023/11/30 00:33:26;;;;;;;17.63;10.73;;;1.70;99.90;;;;;;5016850;28;20034;-72
2023/11/30 00:35:52;;;;;;;20.13;11.15;;;1.70;99.90;;;;;;5028315;28;20449;-72
2023/11/30 00:38:17;;;;;;;19.50;11.27;;;1.70;99.90;;;;;;4996042;28;20121;-72
2023/11/30 00:40:43;;;;;;;19.45;11.70;;;1.70;99.90;;;;;;5032554;28;20069;-72
2023/11/30 00:43:08;;;;;;;19.58;11.35;;;1.70;99.90;;;;;;5017589;28;20411;-72
2023/11/30 00:45:34;;;;;;;20.48;11.73;;;1.70;99.90;;;;;;5011814;28;20835;-72
2023/11/30 00:47:59;;;;;;;18.85;11.10;;;1.70;99.90;;;;;;5003459;28;20046;-73
2023/11/30 00:50:25;;;;;;;17.92;10.57;;;1.70;99.90;;;;;;5018655;28;20041;-72
2023/11/30 00:52:50;;;;;;;18.35;11.27;;;1.70;99.90;;;;;;5024964;28;20033;-72
2023/11/30 00:55:16;;;;;;;19.83;11.10;;;1.70;99.90;;;;;;4995235;28;20397;-72
2023/11/30 00:57:42;;;;;;;18.83;11.35;;;1.70;99.90;;;;;;5005202;28;20084;-72
2023/11/30 01:00:10;;;;;;;20.10;11.88;;;1.70;99.90;;;;;;5024965;28;20037;-72
2023/11/30 01:02:37;;;;;;;19.77;11.18;;;1.70;99.90;;;;;;4992670;28;20034;-72
2023/11/30 01:05:03;;;;;;;19.83;11.85;;;1.70;99.90;;;;;;5012292;28;20048;-72
2023/11/30 01:07:28;;;;;;;19.65;11.25;;;1.70;99.90;;;;;;5011546;28;20028;-72
2023/11/30 01:09:54;;;;;;;21.83;12.07;;;1.60;99.90;;;;;;4980013;28;20038;-73
2023/11/30 01:12:19;;;;;;;19.13;11.48;;;1.70;99.90;;;;;;5006815;28;20100;-71
2023/11/30 01:14:45;;;;;;;22.65;11.85;;;1.60;99.90;;;;;;4984892;28;20034;-72
2023/11/30 01:17:11;;;;;;;20.20;11.80;;;1.70;99.90;;;;;;5036810;28;20486;-71
2023/11/30 01:19:38;;;;;;;19.42;11.55;;;1.70;99.90;;;;;;4994144;28;20041;-72
2023/11/30 01:22:06;;;;;;;19.73;11.65;;;1.70;99.90;;;;;;4991905;28;20042;-72
2023/11/30 01:24:32;;;;;;;20.73;12.43;;;1.60;99.90;;;;;;5010109;28;20041;-71
2023/11/30 01:26:57;;;;;;;21.73;11.63;;;1.70;99.90;;;;;;5012618;28;20042;-71
2023/11/30 01:29:23;;;;;;;20.35;11.35;;;1.60;99.90;;;;;;5019049;28;20509;-72
2023/11/30 01:31:48;;;;;;;18.77;11.88;;;1.60;99.90;;;;;;5021914;28;20418;-72
2023/11/30 01:34:14;;;;;;;23.13;12.98;;;1.70;99.90;;;;;;4993647;28;20675;-71
2023/11/30 01:36:40;;;;;;;22.23;11.80;;;1.70;99.90;;;;;;5007222;28;20451;-71
2023/11/30 01:39:06;;;;;;;20.85;11.93;;;1.70;99.90;;;;;;4999864;28;20109;-71
2023/11/30 01:41:34;;;;;;;24.45;12.65;;;1.70;99.90;;;;;;5004469;28;20180;-71
2023/11/30 01:44:00;;;;;;;21.52;11.50;;;1.70;99.90;;;;;;5022382;28;20049;-72
2023/11/30 01:46:26;;;;;;;20.20;12.00;;;1.70;99.90;;;;;;5029239;28;20055;-72
2023/11/30 01:48:53;;;;;;;19.95;11.02;;;1.60;99.90;;;;;;4999315;28;20129;-72
2023/11/30 01:51:19;;;;;;;21.33;11.38;;;1.60;99.90;;;;;;5012667;28;20133;-72
2023/11/30 01:53:46;;;;;;;22.35;11.63;;;1.70;99.90;;;;;;4991096;28;20033;-72
2023/11/30 01:56:12;;;;;;;24.13;12.10;;;1.60;99.90;;;;;;5034091;28;20049;-72
2023/11/30 01:58:37;;;;;;;20.75;11.68;;;1.60;99.90;;;;;;5030919;28;20046;-72
2023/11/30 02:01:04;;;;;;;19.75;11.80;;;1.60;99.90;;;;;;5013719;28;20128;-72
2023/11/30 02:03:30;;;;;;;21.10;11.82;;;1.60;99.90;;;;;;5006685;28;20037;-72
2023/11/30 02:05:55;;;;;;;20.23;11.77;;;1.60;99.90;;;;;;5005154;28;20563;-72
2023/11/30 02:08:21;;;;;;;22.08;11.60;;;1.60;99.90;;;;;;5025645;28;20095;-72
2023/11/30 02:10:47;;;;;;;22.23;12.18;;;1.50;99.90;;;;;;5026954;28;20038;-72
2023/11/30 02:13:12;;;;;;;21.38;11.65;;;1.50;99.90;;;;;;5031259;28;20040;-72
2023/11/30 02:15:38;;;;;;;21.75;11.95;;;1.50;99.90;;;;;;5003504;28;20474;-72
2023/11/30 02:18:04;;;;;;;21.80;11.95;;;1.50;99.90;;;;;;5025562;28;20127;-72
2023/11/30 02:20:29;;;;;;;23.58;12.63;;;1.50;99.90;;;;;;5010192;28;20059;-72
2023/11/30 02:22:55;;;;;;;22.58;11.75;;;1.50;99.90;;;;;;5027127;28;20081;-72
2023/11/30 02:25:21;;;;;;;24.48;12.77;;;1.50;99.90;;;;;;5003235;28;20037;-72
2023/11/30 02:27:48;;;;;;;20.95;12.18;;;1.50;99.90;;;;;;5026898;28;20061;-73
2023/11/30 02:30:16;;;;;;;22.42;13.00;;;1.50;99.90;;;;;;5017580;28;20099;-72
2023/11/30 02:32:42;;;;;;;24.83;13.05;;;1.50;99.90;;;;;;4999019;28;20044;-72
2023/11/30 02:35:08;;;;;;;23.30;12.93;;;1.50;99.90;;;;;;5001742;28;20038;-72
2023/11/30 02:37:34;;;;;;;24.98;13.23;;;1.50;99.90;;;;;;5013641;28;20409;-72
2023/11/30 02:39:59;;;;;;;26.80;13.57;;;1.50;99.90;;;;;;5025284;28;20037;-72
2023/11/30 02:42:25;;;;;;;22.70;12.35;;;1.50;99.90;;;;;;5027832;28;20036;-72
2023/11/30 02:44:50;;;;;;;24.05;13.23;;;1.50;99.90;;;;;;5010227;28;20038;-72
2023/11/30 02:47:16;;;;;;;24.48;12.82;;;1.50;99.90;;;;;;5014546;28;20038;-72
2023/11/30 02:49:41;;;;;;;24.77;13.27;;;1.50;99.90;;;;;;5031580;28;20382;-72
2023/11/30 02:52:07;;;;;;;23.17;13.07;;;1.50;99.90;;;;;;5025311;28;20411;-72
2023/11/30 02:54:33;;;;;;;24.40;13.65;;;1.60;99.90;;;;;;5007654;28;20029;-72
2023/11/30 02:56:58;;;;;;;23.33;13.13;;;1.50;99.90;;;;;;5028882;28;20396;-72
2023/11/30 02:59:24;;;;;;;24.27;13.07;;;1.60;99.90;;;;;;5017986;28;20045;-72
2023/11/30 03:01:50;;;;;;;23.42;13.38;;;1.50;99.90;;;;;;5021826;28;20040;-72
2023/11/30 03:04:16;;;;;;;24.73;13.13;;;1.60;99.90;;;;;;4990803;28;20045;-72
2023/11/30 03:06:42;;;;;;;26.48;13.80;;;1.60;99.90;;;;;;5035758;28;20046;-72
2023/11/30 03:09:08;;;;;;;23.65;12.60;;;1.60;99.90;;;;;;5030034;28;20037;-72
2023/11/30 03:11:34;;;;;;;22.67;12.80;;;1.60;99.90;;;;;;5021931;28;20045;-72
2023/11/30 03:14:00;;;;;;;22.40;12.85;;;1.60;99.90;;;;;;5034467;28;20414;-71
2023/11/30 03:16:27;;;;;;;25.13;12.75;;;1.60;99.90;;;;;;5014466;28;20045;-72
2023/11/30 03:18:53;;;;;;;26.27;14.15;;;1.60;99.90;;;;;;5017225;28;20552;-72
2023/11/30 03:21:19;;;;;;;23.90;12.35;;;1.60;99.90;;;;;;5033874;28;20179;-73
2023/11/30 03:23:45;;;;;;;24.45;13.43;;;1.60;99.90;;;;;;5011211;28;20837;-72
2023/11/30 03:26:11;;;;;;;24.85;13.95;;;1.60;99.90;;;;;;5006089;28;20053;-72
2023/11/30 03:28:42;;;;;;;26.02;13.75;;;1.60;99.90;;;;;;5028929;28;20034;-72
2023/11/30 03:31:07;;;;;;;28.25;13.70;;;1.60;99.90;;;;;;5019239;28;20042;-72
2023/11/30 03:33:33;;;;;;;25.80;13.98;;;1.60;99.90;;;;;;5023433;28;20478;-72
2023/11/30 03:35:59;;;;;;;24.55;13.70;;;1.60;99.90;;;;;;5025814;28;20092;-72
2023/11/30 03:38:24;;;;;;;27.45;13.98;;;1.60;99.90;;;;;;5007259;28;20081;-72
2023/11/30 03:40:52;;;;;;;28.30;14.85;;;1.60;99.90;;;;;;5020510;28;20034;-72
2023/11/30 03:43:18;;;;;;;25.90;13.75;;;1.60;99.90;;;;;;4995144;28;20035;-72
2023/11/30 03:45:44;;;;;;;24.90;14.45;;;1.60;99.90;;;;;;5024204;28;20047;-72
2023/11/30 03:48:09;;;;;;;29.15;14.60;;;1.70;99.90;;;;;;5032051;28;20120;-72
2023/11/30 03:50:35;;;;;;;29.38;14.52;;;1.70;99.90;;;;;;5009068;28;20056;-72
2023/11/30 03:53:00;;;;;;;24.98;14.18;;;1.60;99.90;;;;;;5023527;28;20099;-72
2023/11/30 03:55:27;;;;;;;24.45;13.38;;;1.70;99.90;;;;;;5012060;28;20120;-72
2023/11/30 03:57:53;;;;;;;22.92;13.30;;;1.70;99.90;;;;;;5029374;28;20087;-72
2023/11/30 04:00:20;;;;;;;27.02;13.75;;;1.70;99.90;;;;;;4998217;28;20069;-72
2023/11/30 04:02:45;;;;;;;25.30;13.70;;;1.70;99.90;;;;;;5027567;28;20041;-72
2023/11/30 04:05:13;;;;;;;24.95;13.20;;;1.70;99.90;;;;;;5002938;28;20513;-72
2023/11/30 04:07:39;;;;;;;23.33;13.02;;;1.70;99.90;;;;;;5017588;28;20065;-72
2023/11/30 04:10:10;;;;;;;26.67;14.00;;;1.70;99.90;;;;;;5010344;28;20067;-72
2023/11/30 04:12:35;;;;;;;22.85;12.57;;;1.70;99.90;;;;;;5005110;28;20080;-72
2023/11/30 04:15:01;;;;;;;24.45;13.98;;;1.70;99.90;;;;;;5031269;28;20033;-71
2023/11/30 04:17:26;;;;;;;27.95;13.60;;;1.70;99.90;;;;;;5057973;22;20040;-65
2023/11/30 04:19:52;;;;;;;23.30;13.05;;;1.70;99.90;;;;;;5017082;28;20039;-66
2023/11/30 04:22:18;;;;;;;24.90;14.00;;;1.70;99.90;;;;;;5047771;28;20111;-65
2023/11/30 04:24:44;;;;;;;23.98;13.10;;;1.70;99.90;;;;;;5028554;28;20343;-63
2023/11/30 04:27:10;;;;;;;23.35;13.02;;;1.70;99.90;;;;;;5027672;28;20045;-63
2023/11/30 04:29:35;;;;;;;23.60;13.23;;;1.70;99.90;;;;;;5027203;28;20041;-63
2023/11/30 04:32:02;;;;;;;25.98;14.13;;;1.70;99.90;;;;;;5037324;28;20480;-63
2023/11/30 04:34:28;;;;;;;23.90;13.18;;;1.70;99.90;;;;;;5021285;28;20102;-63
2023/11/30 04:36:53;;;;;;;25.40;14.02;;;1.70;99.90;;;;;;5043505;28;20037;-63
2023/11/30 04:39:20;;;;;;;25.55;14.20;;;1.70;99.90;;;;;;5032404;28;20049;-63
2023/11/30 04:41:46;;;;;;;24.65;13.80;;;1.70;99.90;;;;;;5042432;28;20037;-63
2023/11/30 04:44:13;;;;;;;26.17;14.63;;;1.70;99.90;;;;;;5042543;28;20048;-63
2023/11/30 04:46:38;;;;;;;26.77;14.75;;;1.70;99.90;;;;;;5041038;28;20502;-63
2023/11/30 04:49:04;;;;;;;25.17;14.38;;;1.70;99.90;;;;;;5023416;28;20045;-63
2023/11/30 04:51:30;;;;;;;28.83;15.20;;;1.70;99.90;;;;;;5042737;28;20519;-63
2023/11/30 04:53:55;;;;;;;26.77;14.25;;;1.70;99.90;;;;;;5041163;28;20045;-63
2023/11/30 04:56:21;;;;;;;24.83;13.95;;;1.70;99.90;;;;;;5040353;28;20042;-63
2023/11/30 04:58:47;;;;;;;26.65;15.10;;;1.70;99.90;;;;;;5043154;28;20040;-63
2023/11/30 05:01:12;;;;;;;26.35;14.77;;;1.70;99.90;;;;;;5046610;28;20678;-63
2023/11/30 05:03:38;;;;;;;27.95;14.68;;;1.70;99.90;;;;;;5027383;28;20125;-63
2023/11/30 05:06:04;;;;;;;27.48;15.13;;;1.70;99.90;;;;;;5044706;28;20381;-63
2023/11/30 05:08:29;;;;;;;27.90;14.68;;;1.70;99.90;;;;;;5034350;28;20377;-63
2023/11/30 05:10:55;;;;;;;29.38;15.30;;;1.70;99.90;;;;;;5043599;28;20036;-63
2023/11/30 05:13:21;;;;;;;29.75;16.10;;;1.70;99.90;;;;;;5038138;28;20030;-63
2023/11/30 05:15:47;;;;;;;27.70;14.75;;;1.70;99.90;;;;;;5041355;28;20048;-63
2023/11/30 05:18:12;;;;;;;27.35;15.50;;;1.70;99.90;;;;;;5006853;28;20171;-63
2023/11/30 05:20:38;;;;;;;29.67;16.05;;;1.70;99.90;;;;;;5015844;28;20036;-63
2023/11/30 05:23:04;;;;;;;26.38;14.73;;;1.70;99.90;;;;;;5039452;28;20510;-63
2023/11/30 05:25:29;;;;;;;27.00;15.30;;;1.70;99.90;;;;;;5026331;28;20037;-63
2023/11/30 05:27:59;;;;;;;28.17;15.32;;;1.70;99.90;;;;;;5030262;28;20056;-63
2023/11/30 05:30:25;;;;;;;28.92;15.85;;;1.70;99.90;;;;;;5029214;28;20102;-63
2023/11/30 05:32:51;;;;;;;30.23;15.95;;;1.70;99.90;;;;;;5035936;28;20121;-63
2023/11/30 05:35:17;;;;;;;31.00;14.80;;;1.70;99.90;;;;;;5022528;28;20584;-63
2023/11/30 05:37:42;;;;;;;31.52;15.95;;;1.70;99.90;;;;;;5031617;28;20037;-63
2023/11/30 05:40:09;;;;;;;29.98;15.80;;;1.70;99.90;;;;;;5042366;28;20029;-64
2023/11/30 05:42:35;;;;;;;31.33;15.70;;;1.70;99.90;;;;;;5033934;28;20045;-63
2023/11/30 05:45:00;;;;;;;32.15;16.63;;;1.60;99.90;;;;;;5016717;28;20036;-64
2023/11/30 05:47:26;;;;;;;30.33;15.90;;;1.70;99.90;;;;;;5025812;28;20084;-64
2023/11/30 05:49:54;;;;;;;28.48;15.00;;;1.60;99.90;;;;;;5042470;28;20128;-64
2023/11/30 05:52:20;;;;;;;28.65;15.70;;;1.70;99.90;;;;;;5020870;28;20050;-63
2023/11/30 05:54:45;;;;;;;31.15;16.45;;;1.60;99.90;;;;;;5041579;28;20035;-63
2023/11/30 05:57:11;;;;;;;31.60;16.55;;;1.70;99.90;;;;;;5023761;28;20153;-64
2023/11/30 05:59:37;;;;;;;32.95;16.60;;;1.60;99.90;;;;;;5028100;28;20120;-63
2023/11/30 06:02:04;;;;;;;33.05;16.88;;;1.60;99.90;;;;;;5042129;28;20075;-64
2023/11/30 06:04:31;;;;;;;33.67;17.38;;;1.60;99.90;;;;;;5021762;28;20269;-63
2023/11/30 06:06:57;;;;;;;35.10;16.77;;;1.60;99.90;;;;;;5043509;28;20037;-63
2023/11/30 06:09:23;;;;;;;34.40;17.42;;;1.60;99.90;;;;;;5044205;28;20037;-63
2023/11/30 06:11:50;;;;;;;36.20;16.95;;;1.60;99.90;;;;;;5048340;28;20121;-64
2023/11/30 06:14:16;;;;;;;34.28;17.70;;;1.70;99.90;;;;;;5028197;28;20037;-64
2023/11/30 06:16:42;;;;;;;36.03;16.95;;;1.70;99.90;;;;;;5041968;28;20482;-64
2023/11/30 06:19:07;;;;;;;33.20;16.88;;;1.70;99.90;;;;;;5041764;28;20549;-64
2023/11/30 06:21:33;;;;;;;33.90;16.83;;;1.70;99.90;;;;;;5039230;28;20052;-64
2023/11/30 06:23:58;;;;;;;32.42;17.25;;;1.70;99.90;;;;;;5044631;28;20041;-64
2023/11/30 06:26:24;;;;;;;34.15;17.00;;;1.70;99.90;;;;;;5030238;28;20048;-64
2023/11/30 06:28:50;;;;;;;32.17;17.35;;;1.70;99.90;;;;;;5044082;28;20034;-64
2023/11/30 06:31:15;;;;;;;34.08;17.00;;;1.70;99.90;;;;;;5042289;28;20051;-64
2023/11/30 06:33:42;;;;;;;30.33;16.00;;;1.70;99.90;;;;;;5047457;28;20033;-64
2023/11/30 06:36:08;;;;;;;30.73;16.42;;;1.70;99.90;;;;;;5030662;28;20086;-64
2023/11/30 06:38:33;;;;;;;30.38;15.90;;;1.70;99.90;;;;;;5037284;28;20395;-64
2023/11/30 06:41:00;;;;;;;33.28;17.23;;;1.70;99.90;;;;;;5039179;28;20048;-64
2023/11/30 06:43:26;;;;;;;31.35;16.90;;;1.70;99.90;;;;;;5042116;28;20056;-64
2023/11/30 06:45:52;;;;;;;32.30;15.65;;;1.80;99.90;;;;;;5046593;28;20508;-64
2023/11/30 06:48:18;;;;;;;30.90;16.20;;;1.80;99.90;;;;;;5024242;28;20041;-64
2023/11/30 06:50:44;;;;;;;28.55;15.18;;;1.80;99.90;;;;;;5045421;28;20033;-64
2023/11/30 06:53:09;;;;;;;29.08;15.40;;;1.80;99.90;;;;;;5038174;28;20403;-64
2023/11/30 06:55:35;;;;;;;28.33;15.88;;;1.80;99.90;;;;;;5044933;28;20120;-64
2023/11/30 06:58:01;;;;;;;30.90;16.13;;;1.80;99.90;;;;;;5043055;28;20060;-65
2023/11/30 07:00:26;;;;;;;28.88;15.05;;;1.80;99.90;;;;;;5042809;28;20037;-64
2023/11/30 07:02:54;;;;;;;29.92;15.65;;;1.80;99.90;;;;;;5028510;28;20128;-64
2023/11/30 07:05:20;;;;;;;31.13;15.43;;;1.80;99.90;;;;;;5033630;28;20492;-64
2023/11/30 07:07:46;;;;;;;31.33;15.77;;;1.80;99.90;;;;;;5022247;28;20125;-64
2023/11/30 07:10:12;;;;;;;32.38;16.65;;;1.80;99.90;;;;;;5039857;28;20116;-64
2023/11/30 07:12:38;;;;;;;30.30;16.13;;;1.80;99.90;;;;;;5033294;28;20033;-64
2023/11/30 07:15:07;;;;;;;31.92;16.25;;;1.80;99.90;;;;;;4999393;28;20041;-64
2023/11/30 07:17:32;;;;;;;30.13;16.75;;;1.80;99.90;;;;;;5048139;28;20044;-64
2023/11/30 07:19:58;;;;;;;30.50;16.48;;;1.80;99.90;;;;;;5034661;28;20408;-64
2023/11/30 07:22:24;;;;;;;31.17;16.20;;;1.80;99.90;;;;;;5044385;28;20694;-65
2023/11/30 07:24:51;;;;;;;33.30;16.17;;;1.70;99.90;;;;;;5031747;28;20132;-64
2023/11/30 07:27:20;;;;;;;29.05;15.40;;;1.80;99.90;;;;;;5024257;28;20075;-64
2023/11/30 07:29:46;;;;;;;33.58;15.90;;;1.80;99.90;;;;;;5040517;28;20069;-64
2023/11/30 07:32:15;;;;;;;35.33;17.40;;;1.70;99.90;;;;;;5043908;28;20112;-64
2023/11/30 07:34:41;;;;;;;30.40;16.00;;;1.80;99.90;;;;;;5029430;28;20049;-64
2023/11/30 07:37:07;;;;;;;32.55;16.95;;;1.80;99.90;;;;;;5037552;28;20075;-64
2023/11/30 07:39:32;;;;;;;31.10;15.98;;;1.80;99.90;;;;;;5034874;28;20029;-64
2023/11/30 07:41:58;;;;;;;36.42;17.15;;;1.70;99.90;;;;;;5018821;28;20046;-64
2023/11/30 07:44:25;;;;;;;31.08;15.52;;;1.80;99.90;;;;;;5045410;28;20048;-64
2023/11/30 07:46:50;;;;;;;33.25;16.35;;;1.70;99.90;;;;;;5050977;28;20029;-64
2023/11/30 07:49:16;;;;;;;31.73;16.20;;;1.70;99.90;;;;;;5025742;28;20531;-64
2023/11/30 07:51:41;;;;;;;30.85;16.30;;;1.80;99.90;;;;;;5038595;28;20036;-64
2023/11/30 07:54:08;;;;;;;31.27;16.13;;;1.80;99.90;;;;;;5048382;28;20033;-64
2023/11/30 07:56:33;;;;;;;34.00;16.65;;;1.80;99.90;;;;;;5039833;28;20033;-64
2023/11/30 07:58:59;;;;;;;34.13;17.25;;;1.80;99.90;;;;;;5040256;28;20057;-64
2023/11/30 08:01:27;;;;;;;32.80;17.95;;;1.80;99.90;;;;;;5034327;28;20136;-64
2023/11/30 08:03:53;;;;;;;35.92;19.25;;;1.80;99.90;;;;;;5022646;28;20041;-64
2023/11/30 08:06:19;;;;;;;34.20;18.33;;;1.80;99.90;;;;;;5035826;28;20049;-64
2023/11/30 08:08:45;;;;;;;37.85;17.83;;;1.80;99.90;;;;;;5019257;28;20048;-64
2023/11/30 08:11:12;;;;;;;34.47;17.92;;;1.90;99.90;;;;;;5035969;28;20049;-64
2023/11/30 08:13:37;;;;;;;31.98;17.50;;;1.90;99.90;;;;;;5016385;28;20480;-64
2023/11/30 08:16:04;;;;;;;35.63;17.75;;;1.90;99.90;;;;;;5024039;28;20106;-63
2023/11/30 08:18:31;;;;;;;36.28;17.15;;;1.90;99.90;;;;;;5019524;28;20045;-64
2023/11/30 08:21:00;;;;;;;31.85;16.90;;;1.90;99.90;;;;;;5001435;28;20041;-64
2023/11/30 08:23:26;;;;;;;31.60;16.63;;;1.90;99.90;;;;;;5021876;28;20041;-64
2023/11/30 08:25:53;;;;;;;33.00;17.88;;;1.90;99.90;;;;;;5043869;28;20037;-64
2023/11/30 08:28:19;;;;;;;32.88;17.52;;;1.90;99.90;;;;;;4998330;28;20373;-64
2023/11/30 08:30:45;;;;;;;29.27;16.15;;;1.90;99.90;;;;;;5046672;28;20040;-64
2023/11/30 08:33:10;;;;;;;30.00;16.08;;;1.90;99.90;;;;;;5024872;28;20049;-64
2023/11/30 08:35:37;;;;;;;39.40;21.88;;;1.90;99.90;;;;;;5017596;28;20060;-64
2023/11/30 08:38:03;;;;;;;41.58;25.40;;;1.90;99.90;;;;;;5030900;28;20056;-64
2023/11/30 08:40:29;;;;;;;38.95;23.08;;;2.00;99.90;;;;;;5046719;28;20483;-64
2023/11/30 08:42:54;;;;;;;39.20;23.42;;;2.00;99.90;;;;;;5028942;28;20057;-64
2023/11/30 08:45:20;;;;;;;31.98;18.80;;;2.00;99.90;;;;;;5019450;28;20411;-63
2023/11/30 08:47:45;;;;;;;32.17;17.30;;;1.70;99.90;;;;;;5033455;28;20119;-64
2023/11/30 08:50:11;;;;;;;31.73;17.08;;;2.00;99.90;;;;;;5037700;28;20048;-64
2023/11/30 08:52:37;;;;;;;31.15;17.02;;;2.00;99.90;;;;;;5046507;28;20087;-64
2023/11/30 08:55:03;;;;;;;31.58;17.00;;;2.00;99.90;;;;;;5035846;28;20049;-64
2023/11/30 08:57:29;;;;;;;31.25;17.33;;;2.00;99.90;;;;;;5036697;28;20046;-64
2023/11/30 08:59:55;;;;;;;31.45;16.67;;;2.00;99.90;;;;;;5039352;28;20044;-64
2023/11/30 09:02:21;;;;;;;30.83;16.52;;;2.00;99.90;;;;;;5019912;28;20488;-63
2023/11/30 09:04:47;;;;;;;33.03;17.85;;;2.00;99.90;;;;;;5037617;28;20424;-64
2023/11/30 09:07:12;;;;;;;30.40;16.15;;;2.10;99.90;;;;;;5034699;28;20411;-64
2023/11/30 09:09:39;;;;;;;30.33;16.27;;;2.10;99.90;;;;;;5039220;28;20038;-64
2023/11/30 09:12:05;;;;;;;32.95;17.05;;;2.10;99.90;;;;;;5033633;28;20424;-64
2023/11/30 09:14:31;;;;;;;66.13;35.28;;;2.10;99.90;;;;;;5033864;28;20040;-63
2023/11/30 09:16:59;;;;;;;50.78;29.13;;;2.20;99.90;;;;;;5032985;28;20040;-64
2023/11/30 09:19:24;;;;;;;49.80;28.38;;;2.20;99.90;;;;;;5019687;28;20126;-64
2023/11/30 09:21:50;;;;;;;49.55;28.45;;;2.20;99.90;;;;;;5038258;28;20075;-64
2023/11/30 09:24:21;;;;;;;38.30;21.05;;;2.20;99.90;;;;;;5029916;28;20055;-64
2023/11/30 09:26:49;;;;;;;36.50;19.65;;;2.20;99.90;;;;;;5021897;28;20458;-64
2023/11/30 09:29:15;;;;;;;33.55;18.60;;;2.30;99.90;;;;;;5044658;28;20381;-64
2023/11/30 09:31:43;;;;;;;32.65;17.40;;;2.30;99.90;;;;;;5038058;28;20083;-64
2023/11/30 09:34:12;;;;;;;36.10;20.70;;;2.30;99.90;;;;;;5039228;28;20044;-64
2023/11/30 09:36:38;;;;;;;37.35;22.90;;;2.40;99.90;;;;;;5039860;28;20037;-64
2023/11/30 09:39:07;;;;;;;43.67;25.25;;;2.40;99.90;;;;;;5028397;28;20120;-64
2023/11/30 09:41:38;;;;;;;41.03;21.92;;;2.40;99.90;;;;;;5046544;28;20104;-64
2023/11/30 09:44:08;;;;;;;36.70;21.83;;;2.40;99.90;;;;;;5025102;28;20091;-64
2023/11/30 09:46:34;;;;;;;44.20;29.13;;;2.50;99.90;;;;;;5009293;28;20099;-64
2023/11/30 09:49:00;;;;;;;36.33;23.50;;;2.50;99.90;;;;;;5042134;28;20037;-64
2023/11/30 09:51:28;;;;;;;32.85;20.13;;;2.60;99.90;;;;;;5045697;28;20476;-64
2023/11/30 09:53:57;;;;;;;30.27;18.40;;;2.60;99.90;;;;;;5020686;28;20107;-64
2023/11/30 09:56:27;;;;;;;29.10;18.23;;;2.60;99.90;;;;;;5039598;28;20519;-64
2023/11/30 09:58:54;;;;;;;28.33;16.88;;;2.60;99.90;;;;;;5037943;28;20059;-64
2023/11/30 10:01:20;;;;;;;29.83;18.67;;;2.60;99.90;;;;;;5028552;28;20041;-64
2023/11/30 10:03:46;;;;;;;26.65;16.13;;;2.60;99.90;;;;;;5033298;28;20160;-64
2023/11/30 10:06:12;;;;;;;24.70;14.45;;;2.70;99.90;;;;;;5020670;28;20052;-64
2023/11/30 10:08:39;;;;;;;27.38;14.70;;;2.70;99.90;;;;;;5024720;28;20471;-64
2023/11/30 10:11:09;;;;;;;26.77;15.23;;;2.70;99.90;;;;;;5037851;28;20045;-64
2023/11/30 10:13:35;;;;;;;26.45;15.43;;;2.70;99.90;;;;;;5016930;28;20497;-64
2023/11/30 10:16:01;;;;;;;26.92;15.98;;;2.70;99.90;;;;;;5023973;28;20098;-64
2023/11/30 10:18:28;;;;;;;25.77;14.48;;;2.80;99.90;;;;;;5070891;22;20480;-70
2023/11/30 10:20:53;;;;;;;26.52;15.50;;;2.80;99.90;;;;;;5048702;28;20079;-70
2023/11/30 10:23:19;;;;;;;25.85;14.80;;;2.80;99.90;;;;;;5069604;28;20060;-70
2023/11/30 10:25:46;;;;;;;25.92;15.02;;;2.80;99.90;;;;;;5052269;28;20040;-71
2023/11/30 10:28:15;;;;;;;25.75;14.68;;;2.80;99.90;;;;;;5052161;28;20040;-70
2023/11/30 10:30:42;;;;;;;24.77;15.80;;;2.80;99.90;;;;;;5049760;28;20036;-70
2023/11/30 10:33:22;;;;;;;27.48;17.73;;;2.80;99.90;;;;;;5053137;28;20048;-70
2023/11/30 10:35:52;;;;;;;22.88;13.32;;;2.90;99.90;;;;;;5051966;28;20053;-70
2023/11/30 10:38:27;;;;;;;21.40;13.25;;;2.90;99.90;;;;;;5050915;28;20509;-70
2023/11/30 10:41:10;;;;;;;22.55;12.85;;;2.80;99.90;;;;;;5057665;28;20037;-70
2023/11/30 10:43:37;;;;;;;23.92;13.40;;;2.80;99.90;;;;;;5033669;28;20047;-69
2023/11/30 10:46:13;;;;;;;23.00;14.07;;;2.80;99.90;;;;;;5030534;28;20060;-70
2023/11/30 10:48:39;;;;;;;44.30;16.05;;;2.80;99.90;;;;;;5037541;28;20045;-70
2023/11/30 10:51:11;;;;;;;35.38;15.70;;;2.70;99.90;;;;;;5033196;28;20105;-70
2023/11/30 10:54:04;;;;;;;26.20;14.00;;;2.70;99.90;;;;;;5034099;28;20058;-70
2023/11/30 10:56:34;;;;;;;26.63;14.98;;;2.70;99.90;;;;;;5035611;28;20202;-70
2023/11/30 10:58:59;;;;;;;24.67;14.40;;;2.70;99.90;;;;;;5022915;28;20087;-70
2023/11/30 11:01:35;;;;;;;29.80;15.80;;;2.70;99.90;;;;;;5052332;28;20033;-70
2023/11/30 11:04:07;;;;;;;51.95;37.88;;;2.70;99.90;;;;;;5056236;28;20033;-70
2023/11/30 11:06:33;;;;;;;30.65;19.67;;;2.80;99.90;;;;;;5046795;28;20123;-70
2023/11/30 11:09:05;;;;;;;28.33;16.83;;;2.80;99.90;;;;;;5050231;28;20715;-70
2023/11/30 11:11:32;;;;;;;31.10;18.70;;;2.80;99.90;;;;;;5056106;28;20044;-72
2023/11/30 11:13:58;;;;;;;26.63;16.23;;;2.80;99.90;;;;;;5052664;28;20036;-73
2023/11/30 11:16:37;;;;;;;26.95;15.70;;;2.80;99.90;;;;;;5050684;28;20367;-72
2023/11/30 11:19:04;;;;;;;27.85;15.65;;;2.90;99.90;;;;;;5046416;28;20492;-72
2023/11/30 11:21:35;;;;;;;26.73;15.98;;;2.90;99.90;;;;;;5048306;28;20095;-72
2023/11/30 11:24:03;;;;;;;57.63;16.80;;;2.90;99.90;;;;;;5045182;28;20041;-72
2023/11/30 11:26:47;;;;;;;26.75;15.85;;;2.90;99.90;;;;;;5028246;28;20392;-70
2023/11/30 11:29:14;;;;;;;30.20;16.52;;;2.90;99.90;;;;;;5027690;28;20462;-70
2023/11/30 11:31:43;;;;;;;26.23;15.05;;;2.80;99.90;;;;;;5033589;28;20615;-70
2023/11/30 11:34:10;;;;;;;30.33;14.73;;;2.80;99.90;;;;;;5032835;28;20166;-71
2023/11/30 11:36:39;;;;;;;26.27;15.23;;;2.80;99.90;;;;;;5044204;28;20041;-70
2023/11/30 11:39:10;;;;;;;25.17;15.15;;;2.80;99.90;;;;;;5016173;28;20072;-71
2023/11/30 11:41:35;;;;;;;26.67;14.98;;;2.80;99.90;;;;;;5030838;28;20036;-72
2023/11/30 11:44:01;;;;;;;22.38;13.95;;;2.80;99.90;;;;;;5029545;28;20398;-71
2023/11/30 11:46:29;;;;;;;26.80;14.93;;;2.80;99.90;;;;;;5050951;28;20102;-70
2023/11/30 11:48:55;;;;;;;26.33;14.70;;;2.80;99.90;;;;;;5026317;28;20163;-71
2023/11/30 11:51:20;;;;;;;26.70;14.30;;;2.80;99.90;;;;;;5052918;28;20525;-71
2023/11/30 11:53:46;;;;;;;27.98;14.02;;;2.80;99.90;;;;;;5027419;28;20037;-70
2023/11/30 11:56:12;;;;;;;22.63;13.32;;;2.90;99.90;;;;;;5028667;28;20088;-71
2023/11/30 11:58:45;;;;;;;22.67;13.60;;;2.80;99.90;;;;;;5049024;28;20048;-71
2023/11/30 12:01:11;;;;;;;;;;;2.80;99.90;;;;;;5031388;28;20529;-70
2023/11/30 12:03:47;;;;;;;23.08;13.10;;;2.70;99.90;;;;;;5062286;28;19920;-70
2023/11/30 12:06:13;;;;;;;23.15;12.73;;;3.60;99.90;;;;;;5030839;28;20045;-70
2023/11/30 12:08:39;;;;;;;25.58;14.20;;;2.60;99.90;;;;;;5032242;28;20045;-71
2023/11/30 12:11:05;;;;;;;34.05;13.98;;;2.60;99.90;;;;;;5051412;28;20040;-70
2023/11/30 12:13:37;;;;;;;36.03;13.77;;;2.60;99.90;;;;;;5027695;28;20040;-70
2023/11/30 12:16:04;;;;;;;28.23;13.53;;;2.60;99.90;;;;;;5038662;28;20052;-70
2023/11/30 12:18:29;;;;;;;22.85;12.85;;;2.60;99.90;;;;;;5047219;28;20037;-71
2023/11/30 12:20:55;;;;;;;25.25;12.90;;;2.60;99.90;;;;;;5029163;28;20120;-72
2023/11/30 12:26:46;;;;;;;23.23;13.05;;;2.60;99.90;;;;;;5050645;28;20040;-71
2023/11/30 12:29:11;;;;;;;24.73;13.90;;;2.60;99.90;;;;;;5063302;28;20500;-71
2023/11/30 12:31:37;;;;;;;22.85;13.82;;;2.60;99.90;;;;;;5044831;28;20041;-71
2023/11/30 12:34:03;;;;;;;28.13;16.48;;;2.60;99.90;;;;;;5029847;28;20067;-71
2023/11/30 12:36:29;;;;;;;29.48;15.02;;;2.60;99.90;;;;;;5029086;28;20045;-70
2023/11/30 12:38:54;;;;;;;25.85;14.95;;;2.60;99.90;;;;;;5015358;28;20050;-71